Main page
METAR-TAF:

METAR-TAF

Airports :

Beauvechain Air Base

Beauvechain, Belgium

latitude: 50-45N, longitude: 004-46E, elevation: 105 m

Current weather observation

The report was made 29 minutes ago, at 18:55 UTC
Wind 4 kt from the East
Temperature 1°C
Humidity 100%
Pressure 1027 hPa
Visibility: 0300 m
fog

METAR: EBBE 231855Z AUTO 08004KT 0300 FG OVC002/// 01/01 Q1027 RED

Time: 20:24 (19:24 UTC)

Forecast

The report was made 3 hours and 43 minutes ago, at 15:41 UTC
Forecast valid from 23 at 19 UTC to 24 at 07 UTC
Wind 8 kt from the East
Visibility: 3000 m
Broken clouds at a height of 300 ft
Overcast at a height of 500 ft
mist
Temporary
from 24 at 05 UTC to 24 at 07 UTC
Wind 1 kt from variable directions
Visibility: 0500 m
Broken clouds at a height of 200 ft
Overcast at a height of 300 ft
fog

TAF: EBBE 231541Z 2319/2407 08008KT 3000 BR BKN003 OVC005 TEMPO 2405/2407 VRB01KT 0500 FG BKN002 OVC003

Weather observations and forecasts of more than 4000 airports (METAR and TAF reports).

The available stations are represented by yellow and red dots on the map.

Hover mouse over dot to see the name of the station.

Then click to see weather observations and forecasts.

To change the map : click on the green buttons with a black cross to zoom in, on the green button with a dash to zoom out, or on the green arrows for adjacent maps.


METAR-TAF: